createdAt,value
2022-08-24T00:00:35.162Z,14.50
2022-08-24T00:03:02.697Z,14.50
2022-08-24T00:05:29.785Z,14.40
2022-08-24T00:07:57.061Z,14.50
2022-08-24T00:10:24.440Z,14.50
2022-08-24T00:12:51.291Z,14.60
2022-08-24T00:15:18.397Z,14.50
2022-08-24T00:17:45.566Z,14.50
2022-08-24T00:20:13.440Z,14.50
2022-08-24T00:22:41.228Z,14.40
2022-08-24T00:25:11.235Z,14.30
2022-08-24T00:27:39.225Z,14.30
2022-08-24T00:30:09.158Z,14.10
2022-08-24T00:32:37.819Z,14.20
2022-08-24T00:35:06.436Z,14.20
2022-08-24T00:37:34.238Z,14.20
2022-08-24T00:40:01.495Z,14.20
2022-08-24T00:42:28.597Z,14.20
2022-08-24T00:44:55.477Z,14.20
2022-08-24T00:47:31.828Z,14.30
2022-08-24T00:50:06.162Z,14.30
2022-08-24T00:52:41.440Z,14.30
2022-08-24T00:55:13.157Z,14.30
2022-08-24T00:57:49.599Z,14.30
2022-08-24T01:00:31.575Z,14.20
2022-08-24T01:03:05.214Z,14.10
2022-08-24T01:05:33.711Z,14.00
2022-08-24T01:08:02.250Z,14.00
2022-08-24T01:10:33.731Z,14.00
2022-08-24T01:13:05.879Z,14.00
2022-08-24T01:15:42.078Z,14.00
2022-08-24T01:18:32.078Z,14.00
2022-08-24T01:21:31.521Z,14.10
2022-08-24T01:24:04.932Z,14.00
2022-08-24T01:26:39.962Z,13.90
2022-08-24T01:29:17.986Z,13.80
2022-08-24T01:31:46.749Z,13.60
2022-08-24T01:34:13.891Z,13.60
2022-08-24T01:37:09.740Z,13.60
2022-08-24T01:39:43.418Z,13.60
2022-08-24T01:42:11.533Z,13.70
2022-08-24T01:44:40.352Z,13.60
2022-08-24T01:47:09.229Z,13.50
2022-08-24T01:49:39.286Z,13.40
2022-08-24T01:52:10.407Z,13.40
2022-08-24T01:54:37.968Z,13.40
2022-08-24T01:57:05.269Z,13.40
2022-08-24T01:59:32.954Z,13.30
2022-08-24T02:02:06.085Z,13.30
2022-08-24T02:04:36.853Z,13.30
2022-08-24T02:07:04.379Z,13.20
2022-08-24T02:09:34.114Z,13.10
2022-08-24T02:12:01.422Z,13.00
2022-08-24T02:14:29.908Z,12.90
2022-08-24T02:16:59.846Z,13.00
2022-08-24T02:19:27.342Z,12.90
2022-08-24T02:21:54.388Z,12.80
2022-08-24T02:24:21.257Z,12.70
2022-08-24T02:26:49.276Z,12.70
2022-08-24T02:29:16.444Z,12.80
2022-08-24T02:31:43.665Z,12.70
2022-08-24T02:34:10.670Z,12.60
2022-08-24T02:36:38.975Z,12.50
2022-08-24T02:39:07.464Z,12.60
2022-08-24T02:41:35.344Z,12.60
2022-08-24T02:44:03.211Z,12.50
2022-08-24T02:46:31.432Z,12.40
2022-08-24T02:49:10.965Z,12.40
2022-08-24T02:51:44.680Z,12.30
2022-08-24T02:54:14.027Z,12.30
2022-08-24T02:56:40.889Z,12.20
2022-08-24T02:59:07.739Z,12.30
2022-08-24T03:01:34.722Z,12.30
2022-08-24T03:04:01.791Z,12.30
2022-08-24T03:06:28.727Z,12.30
2022-08-24T03:08:57.011Z,12.40
2022-08-24T03:11:27.971Z,12.50
2022-08-24T03:13:59.387Z,12.60
2022-08-24T03:16:28.216Z,12.70
2022-08-24T03:18:55.207Z,12.70
2022-08-24T03:21:22.246Z,12.70
2022-08-24T03:23:49.116Z,12.80
2022-08-24T03:26:16.032Z,12.80
2022-08-24T03:28:44.425Z,12.80
2022-08-24T03:31:12.500Z,12.70
2022-08-24T03:33:39.503Z,12.70
2022-08-24T03:36:09.170Z,12.70
2022-08-24T03:38:39.252Z,12.70
2022-08-24T03:41:06.329Z,12.70
2022-08-24T03:43:49.065Z,12.70
2022-08-24T03:46:22.476Z,12.60
2022-08-24T03:48:52.382Z,12.50
2022-08-24T03:51:24.138Z,12.50
2022-08-24T03:53:52.209Z,12.50
2022-08-24T03:56:19.905Z,12.40
2022-08-24T03:58:47.975Z,12.20
2022-08-24T04:01:17.727Z,12.20
2022-08-24T04:03:47.572Z,12.10
2022-08-24T04:06:19.826Z,12.10
2022-08-24T04:08:47.488Z,12.00
2022-08-24T04:11:19.798Z,12.00
2022-08-24T04:13:48.096Z,12.00
2022-08-24T04:16:20.672Z,11.90
2022-08-24T04:18:48.346Z,11.80
2022-08-24T04:21:22.266Z,11.80
2022-08-24T04:23:50.335Z,11.80
2022-08-24T04:26:32.395Z,11.80
2022-08-24T04:29:09.397Z,11.80
2022-08-24T04:31:37.837Z,11.80
2022-08-24T04:34:05.388Z,11.80
2022-08-24T04:36:32.727Z,11.80
2022-08-24T04:39:01.050Z,11.80
2022-08-24T04:41:31.383Z,11.80
2022-08-24T04:43:59.904Z,11.90
2022-08-24T04:46:27.955Z,11.90
2022-08-24T04:48:57.974Z,11.90
2022-08-24T04:51:24.830Z,11.90
2022-08-24T04:53:51.857Z,12.00
2022-08-24T04:56:23.497Z,12.00
2022-08-24T04:58:51.347Z,12.00
2022-08-24T05:01:21.678Z,12.20
2022-08-24T05:03:51.013Z,12.30
2022-08-24T05:06:20.417Z,12.40
2022-08-24T05:08:47.648Z,12.40
2022-08-24T05:11:17.435Z,12.50
2022-08-24T05:13:44.824Z,12.50
2022-08-24T05:16:15.045Z,12.60
2022-08-24T05:18:42.565Z,12.70
2022-08-24T05:21:11.630Z,12.80
2022-08-24T05:23:43.395Z,12.90
2022-08-24T05:26:16.567Z,12.90
2022-08-24T05:28:43.731Z,12.90
2022-08-24T05:31:17.339Z,12.90
2022-08-24T05:33:44.869Z,13.00
2022-08-24T05:36:21.429Z,13.10
2022-08-24T05:38:53.598Z,13.20
2022-08-24T05:41:21.045Z,13.30
2022-08-24T05:43:48.372Z,13.30
2022-08-24T05:46:15.685Z,13.40
2022-08-24T05:48:43.244Z,13.50
2022-08-24T05:51:19.723Z,13.60
2022-08-24T05:53:46.714Z,13.70
2022-08-24T05:56:17.219Z,13.80
2022-08-24T05:58:45.244Z,13.90
2022-08-24T06:01:18.028Z,13.90
2022-08-24T06:03:45.565Z,14.00
2022-08-24T06:06:13.554Z,14.10
2022-08-24T06:08:43.115Z,14.20
2022-08-24T06:11:10.895Z,14.40
2022-08-24T06:13:37.851Z,14.50
2022-08-24T06:16:21.259Z,14.60
2022-08-24T06:18:49.890Z,14.70
2022-08-24T06:21:20.862Z,14.90
2022-08-24T06:23:48.421Z,15.00
2022-08-24T06:26:34.218Z,15.20
2022-08-24T06:29:01.261Z,15.30
2022-08-24T06:31:29.078Z,15.40
2022-08-24T06:34:06.730Z,15.60
2022-08-24T06:36:33.829Z,15.70
2022-08-24T06:39:00.790Z,15.80
2022-08-24T06:41:27.838Z,16.00
2022-08-24T06:43:54.793Z,16.10
2022-08-24T06:46:24.987Z,16.30
2022-08-24T06:48:54.159Z,16.40
2022-08-24T06:51:25.493Z,16.50
2022-08-24T06:53:56.019Z,16.60
2022-08-24T06:56:23.288Z,16.80
2022-08-24T06:58:50.752Z,17.00
2022-08-24T07:01:20.566Z,17.10
2022-08-24T07:03:47.663Z,17.30
2022-08-24T07:06:14.973Z,17.50
2022-08-24T07:08:42.793Z,17.60
2022-08-24T07:11:10.931Z,17.70
2022-08-24T07:13:38.781Z,17.90
2022-08-24T07:16:06.416Z,18.10
2022-08-24T07:18:33.612Z,18.30
2022-08-24T07:21:02.560Z,18.60
2022-08-24T07:23:41.686Z,18.90
2022-08-24T07:26:21.635Z,19.10
2022-08-24T07:28:54.438Z,19.40
2022-08-24T07:31:21.618Z,20.00
2022-08-24T07:33:48.749Z,21.70
2022-08-24T07:36:22.593Z,23.60
2022-08-24T07:38:52.368Z,25.80
2022-08-24T07:41:46.815Z,27.60
2022-08-24T07:44:09.979Z,29.20
2022-08-24T07:46:40.655Z,30.90
2022-08-24T07:49:29.379Z,32.30
2022-08-24T07:51:56.158Z,34.10
2022-08-24T07:54:23.286Z,34.60
2022-08-24T07:56:50.386Z,35.40
2022-08-24T07:59:17.984Z,35.00
2022-08-24T08:01:45.230Z,35.00
2022-08-24T08:04:14.220Z,36.40
2022-08-24T08:06:44.336Z,36.60
2022-08-24T08:09:12.421Z,37.70
2022-08-24T08:11:39.378Z,36.90
2022-08-24T08:14:06.331Z,36.90
2022-08-24T08:16:33.387Z,37.50
2022-08-24T08:19:09.773Z,37.90
2022-08-24T08:22:07.224Z,37.80
2022-08-24T08:24:35.400Z,38.70
2022-08-24T08:27:02.680Z,39.20
2022-08-24T08:29:32.611Z,38.90
2022-08-24T08:32:00.704Z,38.50
2022-08-24T08:34:29.005Z,38.40
2022-08-24T08:36:55.995Z,38.80
2022-08-24T08:39:25.897Z,39.10
2022-08-24T08:42:28.324Z,39.30
2022-08-24T08:45:23.270Z,40.30
2022-08-24T08:48:17.301Z,41.00
2022-08-24T08:51:11.695Z,41.50
2022-08-24T08:54:12.697Z,41.50
2022-08-24T08:57:00.773Z,41.90
2022-08-24T08:59:34.265Z,42.40
2022-08-24T09:02:46.643Z,42.70
2022-08-24T09:05:41.159Z,43.10
2022-08-24T09:08:18.998Z,41.50
2022-08-24T09:10:54.596Z,41.60
2022-08-24T09:13:39.850Z,42.20
2022-08-24T09:16:10.784Z,41.90
2022-08-24T09:19:08.407Z,41.80
2022-08-24T09:21:35.671Z,41.90
2022-08-24T09:24:24.345Z,42.20
2022-08-24T09:27:16.251Z,41.60
2022-08-24T09:29:59.637Z,40.80
2022-08-24T09:32:43.661Z,40.70
2022-08-24T09:35:26.833Z,41.40
2022-08-24T09:38:08.473Z,41.10
2022-08-24T09:40:56.335Z,41.10
2022-08-24T09:43:38.753Z,40.00
2022-08-24T09:46:31.264Z,39.30
2022-08-24T09:49:27.707Z,41.10
2022-08-24T09:52:26.611Z,40.90
2022-08-24T09:55:27.668Z,40.30
2022-08-24T09:58:13.081Z,40.80
2022-08-24T10:00:49.456Z,41.70
2022-08-24T10:03:41.719Z,42.20
2022-08-24T10:06:27.427Z,42.10
2022-08-24T10:08:54.314Z,42.00
2022-08-24T10:11:24.071Z,40.40
2022-08-24T10:14:12.185Z,39.60
2022-08-24T10:16:39.100Z,40.20
2022-08-24T10:19:26.227Z,38.90
2022-08-24T10:22:08.313Z,39.70
2022-08-24T10:24:51.352Z,38.30
2022-08-24T10:27:52.100Z,38.80
2022-08-24T10:30:38.697Z,40.30
2022-08-24T10:33:38.652Z,41.70
2022-08-24T10:36:21.202Z,41.80
2022-08-24T10:39:39.997Z,42.70
2022-08-24T10:42:59.390Z,42.40
2022-08-24T10:45:54.227Z,42.40
2022-08-24T10:48:30.237Z,43.00
2022-08-24T10:51:20.878Z,41.70
2022-08-24T10:53:50.648Z,42.10
2022-08-24T10:56:33.437Z,42.20
2022-08-24T10:59:32.284Z,42.20
2022-08-24T11:02:26.283Z,41.10
2022-08-24T11:04:58.912Z,40.60
2022-08-24T11:07:29.458Z,40.10
2022-08-24T11:10:01.975Z,40.10
2022-08-24T11:12:39.528Z,39.80
2022-08-24T11:15:28.127Z,39.40
2022-08-24T11:17:57.736Z,39.00
2022-08-24T11:20:29.282Z,39.60
2022-08-24T11:23:21.718Z,40.20
2022-08-24T11:26:01.058Z,40.40
2022-08-24T11:28:37.661Z,39.30
2022-08-24T11:31:05.136Z,39.00
2022-08-24T11:33:49.487Z,38.10
2022-08-24T11:36:23.275Z,37.20
2022-08-24T11:39:10.145Z,36.00
2022-08-24T11:42:04.246Z,36.40
2022-08-24T11:44:37.037Z,36.60
2022-08-24T11:47:24.693Z,37.10
2022-08-24T11:49:58.862Z,37.50
2022-08-24T11:52:41.659Z,36.30
2022-08-24T11:55:11.670Z,34.30
2022-08-24T11:57:57.267Z,34.00
2022-08-24T12:00:30.226Z,33.90
2022-08-24T12:03:12.349Z,33.20
2022-08-24T12:05:54.484Z,33.60
2022-08-24T12:08:24.414Z,33.60
2022-08-24T12:11:09.715Z,34.20
2022-08-24T12:13:49.027Z,34.00
2022-08-24T12:16:40.645Z,33.50
2022-08-24T12:19:16.466Z,32.50
2022-08-24T12:21:47.116Z,32.20
2022-08-24T12:24:29.256Z,31.80
2022-08-24T12:27:28.979Z,31.10
2022-08-24T12:30:13.124Z,30.90
2022-08-24T12:32:48.612Z,31.10
2022-08-24T12:35:26.675Z,31.60
2022-08-24T12:38:11.657Z,32.00
2022-08-24T12:40:43.183Z,32.20
2022-08-24T12:43:25.481Z,31.70
2022-08-24T12:45:56.325Z,31.80
2022-08-24T12:48:42.808Z,31.60
2022-08-24T12:51:32.567Z,31.30
2022-08-24T12:54:05.286Z,31.30
2022-08-24T12:56:41.034Z,31.60
2022-08-24T12:59:22.479Z,31.70
2022-08-24T13:02:03.557Z,31.90
2022-08-24T13:04:46.351Z,31.70
2022-08-24T13:07:41.245Z,31.80
2022-08-24T13:10:32.106Z,32.00
2022-08-24T13:13:13.848Z,31.90
2022-08-24T13:15:53.278Z,31.50
2022-08-24T13:18:20.150Z,31.50
2022-08-24T13:20:50.040Z,31.00
2022-08-24T13:23:20.843Z,30.80
2022-08-24T13:25:47.736Z,30.50
2022-08-24T13:28:22.786Z,30.70
2022-08-24T13:31:14.317Z,30.90
2022-08-24T13:34:00.189Z,31.10
2022-08-24T13:36:48.850Z,31.10
2022-08-24T13:39:37.691Z,31.40
2022-08-24T13:42:16.746Z,31.70
2022-08-24T13:45:21.838Z,31.80
2022-08-24T13:48:07.013Z,31.90
2022-08-24T13:51:13.524Z,32.30
2022-08-24T13:53:40.339Z,32.20
2022-08-24T13:56:44.869Z,32.40
2022-08-24T13:59:22.547Z,32.10
2022-08-24T14:02:15.951Z,31.80
2022-08-24T14:05:24.413Z,31.30
2022-08-24T14:08:03.923Z,31.40
2022-08-24T14:10:32.001Z,31.40
2022-08-24T14:13:01.895Z,31.60
2022-08-24T14:15:35.892Z,31.60
2022-08-24T14:18:33.313Z,31.20
2022-08-24T14:21:19.431Z,30.80
2022-08-24T14:24:07.590Z,31.10
2022-08-24T14:26:34.655Z,31.20
2022-08-24T14:29:19.791Z,31.30
2022-08-24T14:32:01.494Z,30.90
2022-08-24T14:35:13.965Z,30.90
2022-08-24T14:37:57.047Z,30.90
2022-08-24T14:40:39.758Z,30.70
2022-08-24T14:43:31.329Z,30.50
2022-08-24T14:46:10.316Z,30.30
2022-08-24T14:49:18.187Z,30.20
2022-08-24T14:52:21.042Z,30.00
2022-08-24T14:55:11.085Z,29.70
2022-08-24T14:57:53.440Z,29.90
2022-08-24T15:00:24.157Z,29.80
2022-08-24T15:03:12.750Z,29.90
2022-08-24T15:06:25.788Z,30.00
2022-08-24T15:08:52.517Z,30.10
2022-08-24T15:11:28.709Z,30.10
2022-08-24T15:14:07.258Z,30.20
2022-08-24T15:16:54.086Z,30.30
2022-08-24T15:19:27.113Z,30.30
2022-08-24T15:22:14.482Z,30.10
2022-08-24T15:24:50.238Z,30.20
2022-08-24T15:27:45.204Z,30.10
2022-08-24T15:30:31.203Z,30.00
2022-08-24T15:33:15.965Z,29.90
2022-08-24T15:35:51.803Z,29.90
2022-08-24T15:38:23.581Z,29.70
2022-08-24T15:41:06.395Z,29.60
2022-08-24T15:43:36.698Z,29.60
2022-08-24T15:46:04.360Z,29.50
2022-08-24T15:48:32.105Z,29.50
2022-08-24T15:51:01.082Z,29.50
2022-08-24T15:53:39.195Z,29.70
2022-08-24T15:56:21.534Z,29.90
2022-08-24T15:58:50.360Z,30.10
2022-08-24T16:01:41.106Z,30.10
2022-08-24T16:04:09.854Z,30.10
2022-08-24T16:06:45.821Z,30.00
2022-08-24T16:09:18.423Z,29.70
2022-08-24T16:11:57.291Z,29.40
2022-08-24T16:14:32.087Z,29.20
2022-08-24T16:17:17.231Z,28.90
2022-08-24T16:19:54.012Z,28.90
2022-08-24T16:22:40.528Z,28.80
2022-08-24T16:25:15.890Z,28.60
2022-08-24T16:28:07.900Z,28.60
2022-08-24T16:30:50.256Z,28.40
2022-08-24T16:33:33.554Z,28.30
2022-08-24T16:36:04.419Z,28.20
2022-08-24T16:38:33.976Z,28.10
2022-08-24T16:41:09.970Z,28.00
2022-08-24T16:43:39.594Z,28.00
2022-08-24T16:46:08.296Z,27.90
2022-08-24T16:48:35.329Z,27.90
2022-08-24T16:51:03.265Z,27.70
2022-08-24T16:53:34.633Z,27.70
2022-08-24T16:56:04.318Z,27.60
2022-08-24T16:58:34.299Z,27.40
2022-08-24T17:01:02.844Z,27.30
2022-08-24T17:03:30.129Z,27.20
2022-08-24T17:05:57.976Z,27.10
2022-08-24T17:08:27.368Z,27.10
2022-08-24T17:10:55.359Z,27.00
2022-08-24T17:13:46.336Z,26.90
2022-08-24T17:16:11.732Z,26.80
2022-08-24T17:18:39.749Z,26.70
2022-08-24T17:21:08.441Z,26.60
2022-08-24T17:23:35.751Z,26.60
2022-08-24T17:26:05.815Z,26.50
2022-08-24T17:28:36.954Z,26.50
2022-08-24T17:31:04.230Z,26.40
2022-08-24T17:33:31.519Z,26.40
2022-08-24T17:35:58.570Z,26.30
2022-08-24T17:38:25.701Z,26.20
2022-08-24T17:40:53.612Z,26.10
2022-08-24T17:43:20.503Z,26.10
2022-08-24T17:45:47.427Z,26.00
2022-08-24T17:48:23.870Z,25.90
2022-08-24T17:50:50.764Z,25.80
2022-08-24T17:53:18.017Z,25.60
2022-08-24T17:55:45.272Z,25.50
2022-08-24T17:58:13.029Z,25.40
2022-08-24T18:00:50.511Z,25.20
2022-08-24T18:03:18.426Z,25.10
2022-08-24T18:05:45.871Z,24.90
2022-08-24T18:08:13.074Z,24.90
2022-08-24T18:10:39.918Z,24.70
2022-08-24T18:13:09.682Z,24.60
2022-08-24T18:15:36.876Z,24.50
2022-08-24T18:18:09.120Z,24.40
2022-08-24T18:20:40.008Z,24.30
2022-08-24T18:23:11.528Z,24.20
2022-08-24T18:25:46.111Z,24.00
2022-08-24T18:28:15.953Z,23.90
2022-08-24T18:30:44.138Z,23.80
2022-08-24T18:33:11.999Z,23.70
2022-08-24T18:35:38.857Z,23.60
2022-08-24T18:38:05.775Z,23.50
2022-08-24T18:40:33.369Z,23.40
2022-08-24T18:43:02.757Z,23.30
2022-08-24T18:45:32.077Z,23.20
2022-08-24T18:47:59.081Z,23.10
2022-08-24T18:50:28.887Z,23.00
2022-08-24T18:52:57.893Z,22.90
2022-08-24T18:55:26.596Z,22.80
2022-08-24T18:57:54.317Z,22.70
2022-08-24T19:00:21.345Z,22.60
2022-08-24T19:02:48.556Z,22.60
2022-08-24T19:05:20.541Z,22.50
2022-08-24T19:07:50.446Z,22.40
2022-08-24T19:10:24.802Z,22.30
2022-08-24T19:13:02.498Z,22.20
2022-08-24T19:15:39.013Z,22.10
2022-08-24T19:18:13.882Z,22.00
2022-08-24T19:20:47.443Z,21.90
2022-08-24T19:23:20.651Z,21.80
2022-08-24T19:25:48.130Z,21.80
2022-08-24T19:28:15.200Z,21.70
2022-08-24T19:30:44.019Z,21.60
2022-08-24T19:33:14.450Z,21.50
2022-08-24T19:35:42.127Z,21.40
2022-08-24T19:38:09.053Z,21.20
2022-08-24T19:40:37.586Z,21.20
2022-08-24T19:43:08.589Z,21.10
2022-08-24T19:46:14.480Z,21.00
2022-08-24T19:48:41.422Z,21.00
2022-08-24T19:51:12.028Z,20.90
2022-08-24T19:53:39.296Z,20.80
2022-08-24T19:56:07.549Z,20.70
2022-08-24T19:58:46.960Z,20.70
2022-08-24T20:01:23.554Z,20.50
2022-08-24T20:03:51.277Z,20.50
2022-08-24T20:06:21.325Z,20.40
2022-08-24T20:08:48.716Z,20.30
2022-08-24T20:11:16.809Z,20.20
2022-08-24T20:13:44.658Z,20.10
2022-08-24T20:16:16.089Z,20.00
2022-08-24T20:18:43.296Z,19.90
2022-08-24T20:21:10.548Z,19.90
2022-08-24T20:23:37.654Z,19.80
2022-08-24T20:26:07.092Z,19.70
2022-08-24T20:28:39.732Z,19.60
2022-08-24T20:31:07.932Z,19.60
2022-08-24T20:33:35.185Z,19.50
2022-08-24T20:36:02.278Z,19.40
2022-08-24T20:38:32.100Z,19.30
2022-08-24T20:40:59.863Z,19.30
2022-08-24T20:43:27.384Z,19.20
2022-08-24T20:45:54.858Z,19.20
2022-08-24T20:48:31.056Z,19.10
2022-08-24T20:50:59.035Z,19.10
2022-08-24T20:53:26.898Z,19.00
2022-08-24T20:55:56.613Z,19.00
2022-08-24T20:58:23.703Z,19.00
2022-08-24T21:00:50.693Z,19.00
2022-08-24T21:03:19.170Z,18.90
2022-08-24T21:05:48.532Z,18.80
2022-08-24T21:08:15.407Z,18.80
2022-08-24T21:10:42.517Z,18.70
2022-08-24T21:13:09.716Z,18.60
2022-08-24T21:15:38.086Z,18.60
2022-08-24T21:18:05.812Z,18.60
2022-08-24T21:20:32.953Z,18.50
2022-08-24T21:22:59.873Z,18.50
2022-08-24T21:25:27.379Z,18.60
2022-08-24T21:27:54.706Z,18.60
2022-08-24T21:30:22.770Z,18.50
2022-08-24T21:33:08.551Z,18.40
2022-08-24T21:35:36.493Z,18.30
2022-08-24T21:38:04.178Z,18.20
2022-08-24T21:40:31.101Z,18.10
2022-08-24T21:42:58.023Z,18.00
2022-08-24T21:45:25.532Z,18.00
2022-08-24T21:47:52.558Z,17.90
2022-08-24T21:50:19.817Z,17.90
2022-08-24T21:52:53.935Z,17.90
2022-08-24T21:55:21.591Z,17.80
2022-08-24T21:57:48.889Z,17.80
2022-08-24T22:00:18.621Z,17.80
2022-08-24T22:02:47.471Z,17.70
2022-08-24T22:05:15.992Z,17.70
2022-08-24T22:07:43.389Z,17.70
2022-08-24T22:10:12.072Z,17.70
2022-08-24T22:12:41.041Z,17.60
2022-08-24T22:15:10.326Z,17.60
2022-08-24T22:17:37.612Z,17.60
2022-08-24T22:20:10.463Z,17.60
2022-08-24T22:22:51.276Z,17.50
2022-08-24T22:25:18.261Z,17.50
2022-08-24T22:27:46.569Z,17.50
2022-08-24T22:30:16.705Z,17.40
2022-08-24T22:32:44.665Z,17.40
2022-08-24T22:35:12.019Z,17.40
2022-08-24T22:37:38.870Z,17.30
2022-08-24T22:40:07.034Z,17.30
2022-08-24T22:42:39.561Z,17.30
2022-08-24T22:45:07.476Z,17.20
2022-08-24T22:47:34.426Z,17.20
2022-08-24T22:50:01.298Z,17.20
2022-08-24T22:52:28.304Z,17.10
2022-08-24T22:54:57.009Z,17.00
2022-08-24T22:57:24.885Z,17.00
2022-08-24T22:59:53.745Z,16.90
2022-08-24T23:02:21.085Z,16.80
2022-08-24T23:04:51.466Z,16.80
2022-08-24T23:07:19.429Z,16.70
2022-08-24T23:09:46.942Z,16.70
2022-08-24T23:12:17.803Z,16.70
2022-08-24T23:14:45.284Z,16.60
2022-08-24T23:17:15.149Z,16.60
2022-08-24T23:20:00.810Z,16.60
2022-08-24T23:22:37.778Z,16.60
2022-08-24T23:25:07.394Z,16.60
2022-08-24T23:27:38.160Z,16.60
2022-08-24T23:30:09.355Z,16.60
2022-08-24T23:32:39.975Z,16.50
2022-08-24T23:35:07.325Z,16.50
2022-08-24T23:37:34.201Z,16.50
2022-08-24T23:40:01.259Z,16.50
2022-08-24T23:42:28.189Z,16.50
2022-08-24T23:44:55.114Z,16.60
2022-08-24T23:47:21.977Z,16.60
2022-08-24T23:49:48.910Z,16.60
2022-08-24T23:52:26.191Z,16.60
2022-08-24T23:54:53.767Z,16.60
2022-08-24T23:57:20.607Z,16.60
2022-08-24T23:59:47.437Z,16.60
